createdAt,value
2019-05-26T00:00:34.315Z,16.00
2019-05-26T00:03:03.841Z,16.00
2019-05-26T00:05:33.038Z,16.00
2019-05-26T00:08:02.476Z,16.00
2019-05-26T00:10:37.440Z,16.00
2019-05-26T00:13:07.593Z,16.00
2019-05-26T00:15:37.089Z,15.90
2019-05-26T00:18:06.250Z,15.80
2019-05-26T00:20:36.129Z,15.80
2019-05-26T00:23:06.266Z,15.80
2019-05-26T00:25:36.692Z,15.80
2019-05-26T00:28:05.838Z,15.80
2019-05-26T00:30:35.194Z,15.80
2019-05-26T00:33:05.019Z,15.80
2019-05-26T00:35:34.440Z,15.80
2019-05-26T00:38:03.841Z,15.80
2019-05-26T00:40:34.129Z,15.80
2019-05-26T00:43:04.296Z,15.70
2019-05-26T00:45:40.688Z,15.70
2019-05-26T00:48:09.833Z,15.60
2019-05-26T00:50:39.323Z,15.60
2019-05-26T00:53:08.852Z,15.70
2019-05-26T00:55:40.175Z,15.70
2019-05-26T00:58:09.291Z,15.70
2019-05-26T01:00:55.880Z,15.70
2019-05-26T01:03:27.346Z,15.70
2019-05-26T01:05:57.569Z,15.60
2019-05-26T01:08:30.175Z,15.60
2019-05-26T01:11:01.454Z,15.60
2019-05-26T01:13:32.203Z,15.50
2019-05-26T01:16:06.663Z,15.50
2019-05-26T01:18:36.761Z,15.50
2019-05-26T01:21:06.208Z,15.50
2019-05-26T01:23:37.339Z,15.50
2019-05-26T01:26:08.778Z,15.50
2019-05-26T01:28:37.862Z,15.40
2019-05-26T01:31:10.248Z,15.30
2019-05-26T01:33:39.342Z,15.30
2019-05-26T01:36:09.445Z,15.30
2019-05-26T01:38:40.479Z,15.20
2019-05-26T01:41:10.010Z,15.10
2019-05-26T01:43:39.091Z,15.10
2019-05-26T01:46:08.211Z,15.10
2019-05-26T01:48:38.315Z,15.10
2019-05-26T01:51:09.966Z,15.10
2019-05-26T01:53:41.539Z,15.10
2019-05-26T01:56:10.730Z,15.00
2019-05-26T01:58:40.224Z,15.00
2019-05-26T02:04:50.247Z,14.90
2019-05-26T02:11:00.707Z,14.90
2019-05-26T02:17:11.123Z,14.60
2019-05-26T02:23:23.370Z,14.20
2019-05-26T02:26:46.109Z,13.90
2019-05-26T02:32:56.350Z,14.00
2019-05-26T02:36:19.412Z,14.00
2019-05-26T02:42:29.839Z,14.00
2019-05-26T02:48:40.189Z,13.90
2019-05-26T02:52:02.849Z,13.80
2019-05-26T02:58:13.090Z,13.80
2019-05-26T03:01:36.460Z,13.70
2019-05-26T03:04:09.742Z,13.70
2019-05-26T03:06:39.768Z,13.70
2019-05-26T03:09:22.535Z,13.70
2019-05-26T03:11:54.657Z,13.70
2019-05-26T03:21:07.473Z,13.60
2019-05-26T03:24:31.092Z,13.60
2019-05-26T03:30:41.398Z,13.50
2019-05-26T03:34:04.520Z,13.40
2019-05-26T03:40:14.759Z,13.40
2019-05-26T03:43:37.824Z,13.40
2019-05-26T03:49:48.297Z,13.30
2019-05-26T03:55:58.661Z,13.30
2019-05-26T03:59:22.056Z,13.20
2019-05-26T04:05:35.688Z,13.30
2019-05-26T04:11:46.132Z,13.40
2019-05-26T04:14:22.293Z,13.40
2019-05-26T04:16:51.421Z,13.40
2019-05-26T04:19:22.927Z,13.40
2019-05-26T04:21:52.102Z,13.50
2019-05-26T04:24:22.286Z,13.40
2019-05-26T04:26:54.898Z,13.30
2019-05-26T04:29:24.048Z,13.20
2019-05-26T04:32:01.854Z,13.40
2019-05-26T04:34:33.583Z,13.50
2019-05-26T04:37:06.927Z,13.50
2019-05-26T04:39:43.981Z,13.60
2019-05-26T04:42:13.391Z,13.70
2019-05-26T04:44:43.497Z,13.80
2019-05-26T04:47:12.793Z,13.90
2019-05-26T04:49:44.981Z,13.90
2019-05-26T04:52:14.081Z,14.00
2019-05-26T04:54:52.583Z,14.10
2019-05-26T04:57:23.709Z,14.20
2019-05-26T04:59:53.877Z,14.30
2019-05-26T05:02:28.373Z,14.50
2019-05-26T05:04:59.721Z,14.60
2019-05-26T05:07:30.770Z,14.80
2019-05-26T05:10:06.279Z,14.90
2019-05-26T05:12:44.922Z,15.10
2019-05-26T05:15:14.346Z,15.20
2019-05-26T05:17:55.733Z,15.30
2019-05-26T05:20:27.141Z,15.40
2019-05-26T05:23:05.479Z,15.50
2019-05-26T05:25:35.682Z,15.60
2019-05-26T05:28:10.851Z,15.70
2019-05-26T05:30:43.118Z,15.70
2019-05-26T05:33:17.986Z,15.80
2019-05-26T05:35:47.344Z,15.80
2019-05-26T05:38:25.656Z,15.80
2019-05-26T05:40:59.904Z,15.80
2019-05-26T05:43:28.878Z,15.90
2019-05-26T05:45:58.264Z,16.00
2019-05-26T05:48:34.935Z,16.10
2019-05-26T05:51:05.109Z,16.20
2019-05-26T05:53:34.300Z,16.30
2019-05-26T05:56:03.637Z,16.30
2019-05-26T05:58:33.064Z,16.50
2019-05-26T06:01:06.722Z,16.50
2019-05-26T06:03:35.868Z,16.60
2019-05-26T06:06:10.994Z,16.70
2019-05-26T06:08:42.656Z,16.90
2019-05-26T06:11:18.189Z,17.20
2019-05-26T06:13:55.590Z,17.60
2019-05-26T06:16:40.456Z,18.40
2019-05-26T06:19:11.635Z,19.40
2019-05-26T06:22:01.734Z,20.30
2019-05-26T06:24:31.181Z,21.10
2019-05-26T06:27:00.331Z,21.90
2019-05-26T06:29:29.534Z,22.20
2019-05-26T06:32:05.256Z,22.60
2019-05-26T06:34:38.511Z,23.10
2019-05-26T06:37:08.687Z,23.70
2019-05-26T06:39:41.854Z,24.00
2019-05-26T06:42:13.229Z,24.50
2019-05-26T06:44:53.910Z,24.70
2019-05-26T06:47:28.639Z,24.90
2019-05-26T06:49:57.799Z,25.20
2019-05-26T06:52:29.249Z,25.50
2019-05-26T06:55:22.815Z,25.60
2019-05-26T06:58:04.327Z,25.80
2019-05-26T07:00:39.684Z,25.80
2019-05-26T07:03:09.225Z,25.80
2019-05-26T07:05:39.515Z,25.90
2019-05-26T07:08:09.154Z,26.10
2019-05-26T07:10:39.614Z,26.70
2019-05-26T07:13:08.735Z,27.30
2019-05-26T07:15:37.913Z,27.40
2019-05-26T07:18:06.996Z,26.90
2019-05-26T07:20:38.140Z,26.60
2019-05-26T07:23:08.526Z,26.80
2019-05-26T07:25:47.183Z,27.20
2019-05-26T07:28:16.930Z,27.80
2019-05-26T07:30:46.140Z,28.10
2019-05-26T07:33:15.314Z,28.20
2019-05-26T07:36:05.487Z,28.30
2019-05-26T07:38:35.609Z,28.00
2019-05-26T07:41:06.943Z,28.00
2019-05-26T07:43:40.809Z,28.10
2019-05-26T07:46:10.252Z,28.30
2019-05-26T07:48:39.394Z,28.30
2019-05-26T07:51:15.115Z,28.20
2019-05-26T07:53:47.325Z,27.90
2019-05-26T07:56:22.811Z,27.60
2019-05-26T07:59:08.032Z,27.20
2019-05-26T08:01:39.350Z,27.00
2019-05-26T08:04:17.399Z,26.80
2019-05-26T08:06:46.883Z,26.60
2019-05-26T08:09:16.827Z,26.60
2019-05-26T08:11:46.263Z,26.40
2019-05-26T08:14:21.368Z,26.40
2019-05-26T08:17:00.201Z,26.40
2019-05-26T08:19:29.434Z,26.40
2019-05-26T08:22:00.781Z,26.40
2019-05-26T08:24:32.250Z,26.50
2019-05-26T08:27:07.728Z,26.40
2019-05-26T08:29:36.924Z,26.30
2019-05-26T08:32:06.321Z,26.20
2019-05-26T08:34:37.126Z,26.00
2019-05-26T08:37:06.646Z,25.80
2019-05-26T08:39:35.750Z,25.80
2019-05-26T08:42:05.601Z,25.80
2019-05-26T08:44:35.073Z,25.80
2019-05-26T08:47:05.042Z,25.70
2019-05-26T08:49:39.547Z,25.60
2019-05-26T08:52:14.199Z,25.70
2019-05-26T08:54:45.865Z,25.80
2019-05-26T08:57:21.109Z,25.70
2019-05-26T08:59:58.116Z,25.60
2019-05-26T09:02:33.193Z,25.60
2019-05-26T09:05:19.654Z,25.60
2019-05-26T09:08:00.370Z,25.60
2019-05-26T09:10:37.462Z,25.60
2019-05-26T09:13:06.994Z,25.60
2019-05-26T09:15:45.658Z,25.60
2019-05-26T09:18:15.179Z,25.60
2019-05-26T09:20:50.589Z,25.50
2019-05-26T09:23:19.801Z,25.40
2019-05-26T09:25:48.883Z,25.30
2019-05-26T09:28:18.285Z,25.30
2019-05-26T09:30:47.774Z,25.40
2019-05-26T09:33:17.551Z,25.40
2019-05-26T09:35:46.691Z,25.50
2019-05-26T09:38:15.737Z,25.50
2019-05-26T09:40:45.026Z,25.60
2019-05-26T09:43:16.582Z,25.70
2019-05-26T09:45:45.587Z,25.60
2019-05-26T09:48:15.355Z,25.70
2019-05-26T09:50:44.433Z,25.80
2019-05-26T09:53:16.887Z,25.90
2019-05-26T09:55:46.602Z,26.10
2019-05-26T09:58:19.264Z,26.10
2019-05-26T10:00:48.704Z,26.00
2019-05-26T10:03:23.950Z,26.00
2019-05-26T10:05:53.021Z,25.90
2019-05-26T10:08:22.187Z,26.00
2019-05-26T10:10:54.439Z,26.00
2019-05-26T10:13:31.814Z,26.00
2019-05-26T10:15:57.118Z,26.00
2019-05-26T10:18:35.337Z,26.10
2019-05-26T10:21:06.289Z,26.10
2019-05-26T10:23:35.509Z,25.80
2019-05-26T10:26:05.584Z,25.70
2019-05-26T10:28:46.031Z,25.60
2019-05-26T10:31:21.536Z,25.50
2019-05-26T10:33:56.522Z,25.60
2019-05-26T10:36:34.066Z,25.50
2019-05-26T10:39:09.402Z,25.70
2019-05-26T10:41:44.689Z,25.70
2019-05-26T10:44:14.195Z,25.80
2019-05-26T10:46:43.683Z,25.70
2019-05-26T10:49:18.323Z,25.90
2019-05-26T10:51:51.397Z,26.00
2019-05-26T10:54:20.512Z,25.80
2019-05-26T10:56:51.898Z,25.60
2019-05-26T10:59:31.159Z,25.70
2019-05-26T11:01:59.826Z,25.60
2019-05-26T11:04:29.300Z,25.70
2019-05-26T11:06:58.473Z,25.80
2019-05-26T11:09:34.218Z,26.00
2019-05-26T11:12:12.626Z,26.10
2019-05-26T11:14:45.031Z,26.30
2019-05-26T11:17:21.353Z,26.20
2019-05-26T11:19:50.497Z,26.20
2019-05-26T11:22:20.182Z,26.10
2019-05-26T11:25:02.156Z,26.30
2019-05-26T11:27:32.609Z,26.30
2019-05-26T11:30:01.702Z,26.50
2019-05-26T11:32:36.682Z,26.50
2019-05-26T11:35:07.501Z,26.40
2019-05-26T11:37:51.543Z,26.30
2019-05-26T11:40:21.058Z,26.20
2019-05-26T11:42:56.579Z,26.20
2019-05-26T11:45:26.243Z,26.20
2019-05-26T11:47:55.474Z,26.00
2019-05-26T11:50:24.666Z,26.10
2019-05-26T11:53:14.509Z,26.20
2019-05-26T11:55:44.701Z,26.20
2019-05-26T11:58:25.991Z,26.10
2019-05-26T12:01:07.543Z,26.10
2019-05-26T12:03:45.086Z,25.90
2019-05-26T12:06:20.803Z,25.90
2019-05-26T12:08:56.050Z,26.10
2019-05-26T12:11:26.267Z,26.10
2019-05-26T12:13:55.466Z,26.10
2019-05-26T12:16:29.258Z,26.20
2019-05-26T12:19:05.314Z,26.10
2019-05-26T12:21:47.122Z,26.20
2019-05-26T12:24:25.144Z,26.20
2019-05-26T12:27:00.382Z,26.30
2019-05-26T12:29:39.424Z,26.30
2019-05-26T12:32:15.305Z,26.40
2019-05-26T12:34:57.018Z,26.40
2019-05-26T12:37:26.519Z,26.40
2019-05-26T12:40:11.611Z,26.40
2019-05-26T12:42:46.677Z,26.40
2019-05-26T12:45:18.186Z,26.50
2019-05-26T12:47:53.457Z,26.50
2019-05-26T12:50:30.393Z,26.40
2019-05-26T12:53:00.258Z,26.40
2019-05-26T12:55:29.432Z,26.40
2019-05-26T12:58:04.640Z,26.30
2019-05-26T13:00:48.331Z,26.30
2019-05-26T13:03:07.930Z,26.30
2019-05-26T13:05:37.381Z,26.30
2019-05-26T13:08:11.355Z,26.30
2019-05-26T13:10:41.007Z,26.30
2019-05-26T13:13:10.436Z,26.30
2019-05-26T13:15:39.514Z,26.30
2019-05-26T13:18:08.632Z,26.40
2019-05-26T13:20:38.072Z,26.40
2019-05-26T13:23:07.507Z,26.30
2019-05-26T13:25:36.632Z,26.30
2019-05-26T13:28:05.789Z,26.20
2019-05-26T13:30:35.518Z,26.10
2019-05-26T13:33:05.412Z,25.90
2019-05-26T13:35:34.648Z,25.80
2019-05-26T13:38:04.068Z,25.70
2019-05-26T13:40:33.240Z,25.60
2019-05-26T13:43:02.375Z,25.50
2019-05-26T13:45:34.330Z,25.50
2019-05-26T13:48:04.532Z,25.50
2019-05-26T13:50:36.963Z,25.40
2019-05-26T13:53:07.129Z,25.30
2019-05-26T13:55:36.432Z,25.40
2019-05-26T13:58:06.010Z,25.60
2019-05-26T14:00:35.531Z,25.70
2019-05-26T14:03:05.683Z,25.70
2019-05-26T14:05:35.564Z,25.60
2019-05-26T14:08:04.780Z,25.60
2019-05-26T14:10:37.442Z,25.60
2019-05-26T14:13:08.195Z,25.70
2019-05-26T14:15:39.189Z,25.70
2019-05-26T14:18:09.761Z,25.60
2019-05-26T14:20:40.757Z,25.40
2019-05-26T14:23:11.198Z,25.40
2019-05-26T14:25:41.365Z,25.20
2019-05-26T14:28:12.006Z,25.00
2019-05-26T14:30:41.428Z,25.00
2019-05-26T14:33:14.112Z,24.90
2019-05-26T14:35:44.198Z,24.90
2019-05-26T14:38:13.466Z,25.00
2019-05-26T14:40:45.470Z,25.10
2019-05-26T14:43:14.741Z,25.00
2019-05-26T14:45:52.947Z,24.90
2019-05-26T14:48:22.321Z,24.90
2019-05-26T14:50:51.951Z,24.90
2019-05-26T14:53:26.124Z,24.80
2019-05-26T14:55:55.910Z,24.90
2019-05-26T14:58:25.403Z,24.90
2019-05-26T15:00:54.700Z,24.90
2019-05-26T15:03:24.093Z,25.00
2019-05-26T15:06:05.090Z,25.00
2019-05-26T15:08:24.077Z,24.90
2019-05-26T15:10:55.921Z,24.90
2019-05-26T15:13:24.859Z,24.90
2019-05-26T15:16:08.787Z,24.80
2019-05-26T15:18:25.613Z,24.80
2019-05-26T15:20:56.103Z,24.80
2019-05-26T15:23:26.298Z,24.80
2019-05-26T15:25:55.760Z,24.70
2019-05-26T15:28:25.488Z,24.60
2019-05-26T15:30:54.542Z,24.60
2019-05-26T15:33:23.990Z,24.60
2019-05-26T15:35:54.719Z,24.60
2019-05-26T15:38:23.821Z,24.60
2019-05-26T15:40:53.334Z,24.50
2019-05-26T15:43:22.751Z,24.50
2019-05-26T15:45:52.447Z,24.40
2019-05-26T15:48:21.961Z,24.40
2019-05-26T15:50:51.063Z,24.40
2019-05-26T15:53:20.142Z,24.40
2019-05-26T15:55:49.227Z,24.30
2019-05-26T15:58:18.635Z,24.30
2019-05-26T16:00:48.470Z,24.30
2019-05-26T16:03:17.859Z,24.30
2019-05-26T16:05:47.379Z,24.30
2019-05-26T16:08:16.946Z,24.20
2019-05-26T16:10:49.626Z,24.20
2019-05-26T16:13:19.549Z,24.20
2019-05-26T16:15:49.081Z,24.00
2019-05-26T16:18:18.556Z,24.00
2019-05-26T16:20:47.968Z,23.90
2019-05-26T16:23:17.148Z,23.90
2019-05-26T16:25:47.565Z,24.00
2019-05-26T16:28:16.621Z,23.90
2019-05-26T16:30:46.012Z,23.90
2019-05-26T16:33:15.062Z,23.80
2019-05-26T16:35:44.491Z,23.80
2019-05-26T16:38:13.580Z,23.80
2019-05-26T16:40:43.326Z,23.80
2019-05-26T16:43:13.117Z,23.80
2019-05-26T16:45:55.347Z,23.60
2019-05-26T16:48:13.089Z,23.60
2019-05-26T16:50:42.688Z,23.60
2019-05-26T16:53:12.158Z,23.60
2019-05-26T16:55:41.254Z,23.60
2019-05-26T16:58:10.380Z,23.60
2019-05-26T17:00:39.499Z,23.60
2019-05-26T17:03:09.876Z,23.50
2019-05-26T17:05:38.995Z,23.40
2019-05-26T17:08:08.673Z,23.30
2019-05-26T17:10:38.108Z,23.30
2019-05-26T17:13:07.598Z,23.30
2019-05-26T17:15:38.660Z,23.20
2019-05-26T17:18:08.268Z,23.20
2019-05-26T17:20:37.399Z,23.10
2019-05-26T17:23:06.478Z,23.10
2019-05-26T17:25:36.150Z,23.00
2019-05-26T17:28:05.398Z,22.90
2019-05-26T17:30:34.547Z,22.80
2019-05-26T17:33:03.918Z,22.80
2019-05-26T17:35:33.066Z,22.80
2019-05-26T17:38:02.526Z,22.70
2019-05-26T17:40:31.599Z,22.80
2019-05-26T17:43:01.542Z,22.80
2019-05-26T17:45:30.975Z,22.70
2019-05-26T17:48:00.243Z,22.70
2019-05-26T17:50:29.427Z,22.70
2019-05-26T17:52:58.862Z,22.70
2019-05-26T17:55:28.301Z,22.60
2019-05-26T17:57:58.356Z,22.60
2019-05-26T18:00:28.398Z,22.60
2019-05-26T18:02:57.971Z,22.60
2019-05-26T18:05:27.039Z,22.60
2019-05-26T18:07:56.518Z,22.50
2019-05-26T18:10:26.066Z,22.50
2019-05-26T18:12:55.610Z,22.40
2019-05-26T18:15:24.825Z,22.30
2019-05-26T18:17:55.347Z,22.30
2019-05-26T18:20:24.949Z,22.30
2019-05-26T18:22:54.656Z,22.30
2019-05-26T18:25:28.168Z,22.20
2019-05-26T18:27:58.121Z,22.20
2019-05-26T18:30:27.238Z,22.20
2019-05-26T18:32:56.334Z,22.00
2019-05-26T18:35:25.417Z,22.00
2019-05-26T18:37:55.299Z,21.90
2019-05-26T18:40:26.366Z,21.90
2019-05-26T18:42:56.135Z,21.90
2019-05-26T18:45:25.673Z,21.80
2019-05-26T18:48:03.070Z,21.80
2019-05-26T18:50:26.142Z,21.70
2019-05-26T18:52:56.737Z,21.60
2019-05-26T18:55:26.714Z,21.50
2019-05-26T18:57:55.848Z,21.40
2019-05-26T19:00:31.001Z,21.30
2019-05-26T19:03:01.223Z,21.20
2019-05-26T19:05:34.609Z,21.10
2019-05-26T19:08:04.078Z,21.10
2019-05-26T19:10:34.406Z,21.00
2019-05-26T19:13:04.336Z,20.90
2019-05-26T19:15:36.591Z,21.00
2019-05-26T19:18:18.839Z,21.00
2019-05-26T19:20:37.151Z,21.00
2019-05-26T19:23:06.608Z,20.90
2019-05-26T19:25:36.144Z,20.90
2019-05-26T19:28:05.543Z,20.90
2019-05-26T19:30:35.281Z,20.80
2019-05-26T19:33:04.764Z,20.70
2019-05-26T19:35:34.433Z,20.60
2019-05-26T19:38:03.644Z,20.60
2019-05-26T19:40:33.075Z,20.50
2019-05-26T19:43:02.422Z,20.50
2019-05-26T19:45:32.016Z,20.30
2019-05-26T19:48:01.113Z,20.20
2019-05-26T19:50:30.265Z,20.20
2019-05-26T19:52:59.368Z,20.10
2019-05-26T19:55:28.710Z,20.00
2019-05-26T19:57:58.183Z,19.90
2019-05-26T20:00:28.911Z,19.80
2019-05-26T20:02:59.972Z,19.70
2019-05-26T20:05:29.037Z,19.60
2019-05-26T20:07:58.469Z,19.60
2019-05-26T20:10:27.614Z,19.50
2019-05-26T20:12:57.446Z,19.50
2019-05-26T20:15:27.443Z,19.50
2019-05-26T20:17:56.620Z,19.40
2019-05-26T20:20:25.783Z,19.20
2019-05-26T20:22:57.261Z,19.10
2019-05-26T20:25:26.546Z,19.00
2019-05-26T20:27:55.954Z,18.80
2019-05-26T20:30:25.427Z,18.80
2019-05-26T20:32:54.547Z,18.80
2019-05-26T20:35:25.227Z,18.60
2019-05-26T20:37:54.676Z,18.60
2019-05-26T20:40:24.417Z,18.60
2019-05-26T20:42:53.621Z,18.60
2019-05-26T20:45:24.232Z,18.60
2019-05-26T20:47:53.506Z,18.60
2019-05-26T20:50:29.006Z,18.50
2019-05-26T20:52:57.078Z,18.50
2019-05-26T20:55:26.476Z,18.50
2019-05-26T20:57:55.975Z,18.40
2019-05-26T21:00:25.516Z,18.20
2019-05-26T21:02:54.659Z,18.00
2019-05-26T21:05:23.748Z,18.00
2019-05-26T21:07:53.194Z,18.10
2019-05-26T21:10:23.276Z,18.10
2019-05-26T21:12:52.966Z,17.90
2019-05-26T21:15:22.084Z,17.80
2019-05-26T21:17:51.330Z,17.70
2019-05-26T21:20:20.518Z,17.50
2019-05-26T21:22:51.545Z,17.40
2019-05-26T21:25:21.833Z,17.30
2019-05-26T21:27:51.088Z,17.20
2019-05-26T21:30:21.267Z,17.20
2019-05-26T21:32:50.355Z,17.30
2019-05-26T21:35:19.477Z,17.30
2019-05-26T21:37:49.709Z,17.30
2019-05-26T21:40:19.807Z,17.30
2019-05-26T21:42:49.915Z,17.30
2019-05-26T21:45:19.619Z,17.10
2019-05-26T21:47:49.066Z,17.00
2019-05-26T21:50:18.338Z,16.90
2019-05-26T21:52:47.407Z,16.90
2019-05-26T21:55:17.465Z,17.00
2019-05-26T21:57:46.594Z,17.00
2019-05-26T22:00:18.553Z,17.00
2019-05-26T22:02:47.637Z,16.90
2019-05-26T22:05:16.791Z,16.90
2019-05-26T22:07:45.902Z,16.90
2019-05-26T22:10:17.022Z,16.90
2019-05-26T22:12:46.118Z,16.80
2019-05-26T22:15:15.654Z,16.60
2019-05-26T22:17:45.051Z,16.50
2019-05-26T22:20:14.206Z,16.40
2019-05-26T22:22:43.366Z,16.30
2019-05-26T22:25:12.845Z,16.20
2019-05-26T22:27:41.989Z,16.30
2019-05-26T22:30:11.882Z,16.40
2019-05-26T22:32:40.941Z,16.40
2019-05-26T22:35:10.094Z,16.50
2019-05-26T22:37:39.238Z,16.50
2019-05-26T22:40:08.807Z,16.50
2019-05-26T22:42:38.845Z,16.50
2019-05-26T22:45:09.575Z,16.40
2019-05-26T22:47:38.660Z,16.40
2019-05-26T22:50:08.243Z,16.40
2019-05-26T22:52:37.297Z,16.40
2019-05-26T22:55:06.790Z,16.40
2019-05-26T22:57:36.199Z,16.40
2019-05-26T23:00:06.665Z,16.40
2019-05-26T23:02:35.850Z,16.30
2019-05-26T23:05:05.147Z,16.20
2019-05-26T23:07:34.197Z,16.10
2019-05-26T23:10:03.749Z,16.00
2019-05-26T23:12:33.430Z,15.90
2019-05-26T23:15:02.890Z,15.90
2019-05-26T23:17:32.067Z,16.00
2019-05-26T23:20:01.151Z,16.00
2019-05-26T23:22:30.265Z,15.90
2019-05-26T23:24:59.341Z,16.00
2019-05-26T23:27:28.854Z,16.00
2019-05-26T23:29:58.963Z,16.00
2019-05-26T23:32:28.469Z,15.90
2019-05-26T23:34:57.896Z,16.00
2019-05-26T23:37:27.282Z,16.00
2019-05-26T23:39:56.369Z,16.00
2019-05-26T23:42:25.475Z,16.00
2019-05-26T23:44:54.578Z,16.10
2019-05-26T23:47:23.728Z,16.10
2019-05-26T23:49:52.853Z,16.10
2019-05-26T23:52:22.367Z,16.00
2019-05-26T23:54:51.780Z,16.00
2019-05-26T23:57:20.955Z,16.10
2019-05-26T23:59:50.106Z,16.10
